Terminal Aerodrome Forecast
Issued by NWS

Home | Current Version | Previous Version | Text Only | Print | Product List | Glossary On
Versions: 1 2 3 4 5 6 7 8 9 10 11 12 13 14 15 16 17 18 19 20 21
000
FTUS42 KFFC 012320
TAFRYY
TAF
KRYY 012320Z 0200/0224 28004KT P6SM FEW060 SCT250
     FM020200 VRB03KT P6SM SCT250
     FM020700 10005KT P6SM BKN012
     FM021000 11007KT 4SM BR BKN008
     FM021700 12008KT P6SM BKN015
     FM021900 14008KT P6SM SCT025 BKN040
     FM022200 19008KT P6SM BKN040
      AMD NOT SKED 0204/0212=

USA.gov is the U.S. government's official web portal to all federal, state and local government web resources and services.